Time;durP1;ratioP1;P1;durP2;ratioP2;P2;SDS_P1;SDS_P2;PMS_P1;PMS_P2;Temp;Humidity;BMP_temperature;BMP_pressure;BME280_temperature;BME280_humidity;BME280_pressure;Samples;Min_cycle;Max_cycle;Signal;HPM_P1;HPM_P2
2021/05/22 00:00:43;;;;;;;;;;;21.90;42.00;;;;;;5015783;28;77132;-66
2021/05/22 00:03:09;;;;;;;;;;;21.80;42.50;;;;;;5033367;28;75206;-63
2021/05/22 00:05:35;;;;;;;;;;;21.70;42.50;;;;;;5033580;28;74975;-62
2021/05/22 00:08:00;;;;;;;;;;;21.60;42.60;;;;;;5031791;28;75454;-64
2021/05/22 00:10:26;;;;;;;;;;;21.60;42.60;;;;;;5033307;28;75225;-63
2021/05/22 00:12:51;;;;;;;;;;;21.60;42.60;;;;;;5033415;28;75094;-65
2021/05/22 00:15:18;;;;;;;;;;;21.50;42.70;;;;;;5033364;28;74990;-63
2021/05/22 00:17:44;;;;;;;;;;;21.50;42.60;;;;;;5031552;28;75463;-65
2021/05/22 00:20:10;;;;;;;;;;;21.50;42.70;;;;;;5031805;28;75891;-65
2021/05/22 00:22:36;;;;;;;;;;;21.40;43.10;;;;;;5033202;28;75206;-66
2021/05/22 00:25:03;;;;;;;;;;;21.40;42.80;;;;;;5033346;28;75266;-66
2021/05/22 00:27:29;;;;;;;;;;;21.30;43.00;;;;;;5032937;28;75726;-66
2021/05/22 00:29:54;;;;;;;;;;;21.30;43.30;;;;;;5033388;28;75239;-66
2021/05/22 00:32:20;;;;;;;;;;;21.20;43.40;;;;;;5033161;28;75008;-65
2021/05/22 00:34:46;;;;;;;;;;;21.20;43.20;;;;;;5031545;28;77427;-66
2021/05/22 00:37:11;;;;;;;;;;;21.10;43.10;;;;;;5032670;28;75305;-67
2021/05/22 00:39:37;;;;;;;;;;;21.10;43.00;;;;;;5033612;28;74430;-66
2021/05/22 00:42:04;;;;;;;;;;;21.00;43.10;;;;;;5033597;28;75766;-66
2021/05/22 00:44:31;;;;;;;;;;;21.00;42.90;;;;;;5032893;28;75335;-66
2021/05/22 00:47:01;;;;;;;;;;;21.00;42.90;;;;;;5032920;28;75183;-62
2021/05/22 00:49:27;;;;;;;;;;;21.00;42.90;;;;;;5032658;28;75318;-66
2021/05/22 00:51:52;;;;;;;;;;;20.90;42.90;;;;;;5032960;28;74729;-63
2021/05/22 00:54:18;;;;;;;;;;;20.90;42.80;;;;;;5032088;28;75543;-63
2021/05/22 00:56:45;;;;;;;;;;;20.90;43.00;;;;;;5032790;28;75000;-65
2021/05/22 00:59:13;;;;;;;;;;;20.80;42.70;;;;;;5032767;28;75214;-66
2021/05/22 01:01:39;;;;;;;;;;;20.80;42.90;;;;;;5030699;28;76985;-66
2021/05/22 01:04:04;;;;;;;;;;;20.80;42.70;;;;;;5031871;28;77553;-62
2021/05/22 01:06:32;;;;;;;;;;;20.80;42.60;;;;;;5030727;28;76551;-64
2021/05/22 01:09:01;;;;;;;;;;;20.80;42.40;;;;;;5032656;28;74612;-67
2021/05/22 01:11:31;;;;;;;;;;;20.70;42.30;;;;;;5030495;28;77315;-65
2021/05/22 01:13:59;;;;;;;;;;;20.70;42.40;;;;;;5033011;28;74506;-63
2021/05/22 01:16:24;;;;;;;;;;;20.70;42.40;;;;;;5032410;28;74427;-65
2021/05/22 01:18:51;;;;;;;;;;;20.70;42.20;;;;;;5031004;28;78209;-63
2021/05/22 01:21:17;;;;;;;;;;;20.70;42.10;;;;;;5032550;28;75795;-66
2021/05/22 01:23:46;;;;;;;;;;;20.60;42.20;;;;;;5032379;28;75143;-66
2021/05/22 01:26:12;;;;;;;;;;;20.50;42.20;;;;;;5030844;28;78198;-67
2021/05/22 01:28:39;;;;;;;;;;;20.50;42.20;;;;;;5030689;28;78083;-67
2021/05/22 01:31:06;;;;;;;;;;;20.50;42.20;;;;;;5030831;28;75506;-66
2021/05/22 01:33:32;;;;;;;;;;;20.50;42.20;;;;;;5030833;28;77198;-66
2021/05/22 01:35:57;;;;;;;;;;;20.40;42.20;;;;;;5030261;28;77497;-65
2021/05/22 01:38:23;;;;;;;;;;;20.40;42.20;;;;;;5032152;28;74956;-65
2021/05/22 01:40:50;;;;;;;;;;;20.40;42.20;;;;;;5030750;28;75411;-64
2021/05/22 01:43:16;;;;;;;;;;;20.40;42.30;;;;;;5030644;28;75556;-65
2021/05/22 01:45:45;;;;;;;;;;;20.30;42.30;;;;;;5032033;28;75146;-66
2021/05/22 01:48:11;;;;;;;;;;;20.30;42.20;;;;;;5030540;28;77583;-64
2021/05/22 01:50:40;;;;;;;;;;;20.30;42.40;;;;;;5032180;28;75274;-65
2021/05/22 01:53:07;;;;;;;;;;;20.30;42.10;;;;;;5031832;28;74503;-64
2021/05/22 01:55:33;;;;;;;;;;;20.30;42.10;;;;;;5031019;28;78126;-64
2021/05/22 01:57:58;;;;;;;;;;;20.30;42.00;;;;;;5031846;28;75050;-62
2021/05/22 02:00:26;;;;;;;;;;;20.30;41.70;;;;;;5032434;28;74574;-63
2021/05/22 02:02:51;;;;;;;;;;;20.30;41.70;;;;;;5031846;28;75192;-62
2021/05/22 02:05:18;;;;;;;;;;;20.30;41.70;;;;;;5032020;28;74865;-63
2021/05/22 02:07:45;;;;;;;;;;;20.20;41.50;;;;;;5031701;28;75129;-62
2021/05/22 02:10:11;;;;;;;;;;;20.30;41.30;;;;;;5029924;28;76867;-62
2021/05/22 02:12:38;;;;;;;;;;;20.30;41.30;;;;;;5031628;28;74741;-61
2021/05/22 02:15:07;;;;;;;;;;;20.30;41.10;;;;;;5029762;28;74599;-63
2021/05/22 02:17:33;;;;;;;;;;;20.30;41.10;;;;;;5030359;28;77313;-62
2021/05/22 02:19:59;;;;;;;;;;;20.30;40.90;;;;;;5030334;28;77332;-63
2021/05/22 02:22:25;;;;;;;;;;;20.30;41.00;;;;;;5031288;28;75605;-62
2021/05/22 02:24:51;;;;;;;;;;;20.30;40.80;;;;;;5031734;28;74982;-62
2021/05/22 02:27:17;;;;;;;;;;;20.30;40.70;;;;;;5032354;28;77206;-62
2021/05/22 02:29:44;;;;;;;;;;;20.30;40.60;;;;;;5034913;28;76574;-63
2021/05/22 02:32:10;;;;;;;;;;;20.30;40.60;;;;;;5033356;28;77902;-63
2021/05/22 02:34:39;;;;;;;;;;;20.20;40.20;;;;;;5033495;28;75715;-65
2021/05/22 02:37:05;;;;;;;;;;;20.10;40.40;;;;;;5033728;28;77767;-66
2021/05/22 02:39:32;;;;;;;;;;;20.10;40.00;;;;;;5032799;28;77258;-62
2021/05/22 02:42:00;;;;;;;;;;;19.90;40.10;;;;;;5033274;28;77356;-62
2021/05/22 02:44:27;;;;;;;;;;;19.90;40.10;;;;;;5034781;28;75020;-65
2021/05/22 02:46:53;;;;;;;;;;;19.80;40.00;;;;;;5034774;28;75478;-66
2021/05/22 02:49:20;;;;;;;;;;;19.90;39.90;;;;;;5033188;28;75538;-62
2021/05/22 02:51:48;;;;;;;;;;;19.80;39.70;;;;;;5034959;28;75145;-62
2021/05/22 02:54:14;;;;;;;;;;;19.70;39.70;;;;;;5032923;28;77282;-62
2021/05/22 02:56:40;;;;;;;;;;;19.70;39.90;;;;;;5034465;28;75250;-62
2021/05/22 02:59:07;;;;;;;;;;;19.70;39.60;;;;;;5034745;28;75408;-61
2021/05/22 03:01:32;;;;;;;;;;;19.70;39.50;;;;;;5034468;28;75075;-62
2021/05/22 03:03:59;;;;;;;;;;;19.70;39.30;;;;;;5033252;28;77928;-62
2021/05/22 03:06:25;;;;;;;;;;;19.60;39.20;;;;;;5034684;28;74486;-62
2021/05/22 03:08:51;;;;;;;;;;;19.60;39.00;;;;;;5034482;28;74579;-65
2021/05/22 03:11:17;;;;;;;;;;;19.60;39.00;;;;;;5034210;28;75413;-62
2021/05/22 03:13:43;;;;;;;;;;;19.50;38.70;;;;;;5034773;28;74413;-64
2021/05/22 03:16:09;;;;;;;;;;;19.40;38.90;;;;;;5034938;28;74687;-63
2021/05/22 03:18:34;;;;;;;;;;;19.40;39.20;;;;;;5034344;28;75326;-62
2021/05/22 03:21:00;;;;;;;;;;;19.30;39.10;;;;;;5032809;28;75362;-63
2021/05/22 03:23:26;;;;;;;;;;;19.30;39.30;;;;;;5032301;28;75379;-62
2021/05/22 03:25:52;;;;;;;;;;;19.20;39.20;;;;;;5034581;28;74513;-62
2021/05/22 03:28:17;;;;;;;;;;;19.30;39.00;;;;;;5032471;28;74897;-63
2021/05/22 03:30:43;;;;;;;;;;;19.10;39.00;;;;;;5034618;28;74618;-64
2021/05/22 03:33:08;;;;;;;;;;;19.10;39.00;;;;;;5032598;28;76398;-64
2021/05/22 03:35:34;;;;;;;;;;;19.10;39.00;;;;;;5032491;28;77854;-64
2021/05/22 03:38:00;;;;;;;;;;;19.10;39.00;;;;;;5031694;28;78313;-62
2021/05/22 03:40:25;;;;;;;;;;;19.00;39.20;;;;;;5032328;28;76108;-62
2021/05/22 03:42:51;;;;;;;;;;;19.10;39.20;;;;;;5032350;28;75644;-62
2021/05/22 03:45:16;;;;;;;;;;;19.10;39.10;;;;;;5032661;28;76876;-62
2021/05/22 03:47:42;;;;;;;;;;;19.10;39.00;;;;;;5032206;28;76417;-61
2021/05/22 03:50:08;;;;;;;;;;;19.00;39.10;;;;;;5034501;28;74572;-63
2021/05/22 03:52:34;;;;;;;;;;;19.00;39.30;;;;;;5033878;28;75006;-61
2021/05/22 03:54:59;;;;;;;;;;;19.00;39.40;;;;;;5033114;28;78006;-65
2021/05/22 03:57:25;;;;;;;;;;;18.90;39.30;;;;;;5032356;28;74699;-63
2021/05/22 03:59:50;;;;;;;;;;;18.90;39.50;;;;;;5031911;28;77021;-65
2021/05/22 04:02:16;;;;;;;;;;;18.80;39.60;;;;;;5032535;28;75547;-62
2021/05/22 04:04:42;;;;;;;;;;;18.80;39.70;;;;;;5031962;28;75805;-62
2021/05/22 04:07:07;;;;;;;;;;;18.80;39.70;;;;;;5032292;28;76827;-63
2021/05/22 04:09:33;;;;;;;;;;;18.80;39.70;;;;;;5033526;28;74399;-62
2021/05/22 04:11:59;;;;;;;;;;;18.80;39.80;;;;;;5031673;28;76142;-62
2021/05/22 04:14:24;;;;;;;;;;;18.70;39.80;;;;;;5031944;28;75810;-64
2021/05/22 04:16:50;;;;;;;;;;;18.60;39.90;;;;;;5033609;28;74465;-63
2021/05/22 04:19:15;;;;;;;;;;;18.60;40.00;;;;;;5033575;28;75584;-63
2021/05/22 04:21:41;;;;;;;;;;;18.50;40.10;;;;;;5033471;28;74570;-62
2021/05/22 04:24:08;;;;;;;;;;;18.40;40.20;;;;;;5033410;28;75037;-61
2021/05/22 04:26:34;;;;;;;;;;;18.40;40.40;;;;;;5031293;28;77116;-61
2021/05/22 04:28:59;;;;;;;;;;;18.30;40.50;;;;;;5031924;28;75964;-63
2021/05/22 04:31:25;;;;;;;;;;;18.20;40.80;;;;;;5031812;28;76801;-62
2021/05/22 04:33:51;;;;;;;;;;;18.10;40.80;;;;;;5031636;28;76022;-63
2021/05/22 04:36:16;;;;;;;;;;;18.10;40.90;;;;;;5033127;28;75776;-62
2021/05/22 04:38:42;;;;;;;;;;;18.10;40.90;;;;;;5033002;28;75675;-61
2021/05/22 04:41:07;;;;;;;;;;;18.10;40.90;;;;;;5031356;28;77513;-66
2021/05/22 04:43:33;;;;;;;;;;;18.20;40.90;;;;;;5031704;28;75360;-63
2021/05/22 04:45:59;;;;;;;;;;;18.20;40.80;;;;;;5032857;28;75055;-62
2021/05/22 04:48:24;;;;;;;;;;;18.30;40.90;;;;;;5031503;28;77591;-64
2021/05/22 04:50:50;;;;;;;;;;;18.30;40.70;;;;;;5031787;28;75273;-64
2021/05/22 04:53:15;;;;;;;;;;;18.30;40.70;;;;;;5031158;28;76590;-63
2021/05/22 04:55:41;;;;;;;;;;;18.20;40.90;;;;;;5032982;28;74574;-65
2021/05/22 04:58:07;;;;;;;;;;;18.30;40.90;;;;;;5032907;28;75205;-62
2021/05/22 05:00:32;;;;;;;;;;;18.30;41.00;;;;;;5032741;28;75134;-65
2021/05/22 05:02:58;;;;;;;;;;;18.20;41.10;;;;;;5032820;28;74434;-61
2021/05/22 05:05:24;;;;;;;;;;;18.20;41.20;;;;;;5031660;28;77496;-63
2021/05/22 05:07:49;;;;;;;;;;;18.20;41.10;;;;;;5030452;28;77599;-61
2021/05/22 05:10:15;;;;;;;;;;;18.20;41.20;;;;;;5030663;28;76851;-61
2021/05/22 05:12:41;;;;;;;;;;;18.20;41.10;;;;;;5030634;28;78500;-62
2021/05/22 05:15:07;;;;;;;;;;;18.20;41.20;;;;;;5032664;28;75693;-61
2021/05/22 05:17:33;;;;;;;;;;;18.10;41.50;;;;;;5032478;28;75210;-62
2021/05/22 05:19:58;;;;;;;;;;;18.00;41.30;;;;;;5030625;28;76046;-62
2021/05/22 05:22:26;;;;;;;;;;;17.90;41.40;;;;;;5030826;28;77047;-63
2021/05/22 05:24:51;;;;;;;;;;;18.00;41.60;;;;;;5032267;28;75777;-63
2021/05/22 05:27:17;;;;;;;;;;;17.90;41.50;;;;;;5032900;28;74413;-62
2021/05/22 05:29:43;;;;;;;;;;;17.90;41.60;;;;;;5032053;28;75290;-63
2021/05/22 05:32:08;;;;;;;;;;;17.90;41.60;;;;;;5032264;28;75166;-65
2021/05/22 05:34:34;;;;;;;;;;;18.00;41.60;;;;;;5032211;28;75176;-61
2021/05/22 05:37:00;;;;;;;;;;;18.00;41.50;;;;;;5032131;28;75219;-64
2021/05/22 05:39:26;;;;;;;;;;;17.90;41.40;;;;;;5030587;28;75375;-63
2021/05/22 05:41:51;;;;;;;;;;;18.00;41.50;;;;;;5032180;28;75568;-64
2021/05/22 05:44:17;;;;;;;;;;;18.00;41.50;;;;;;5030603;28;77100;-65
2021/05/22 05:46:42;;;;;;;;;;;18.10;41.30;;;;;;5030777;28;77761;-62
2021/05/22 05:49:08;;;;;;;;;;;18.10;41.10;;;;;;5032103;28;75109;-62
2021/05/22 05:51:34;;;;;;;;;;;18.00;41.10;;;;;;5032360;28;75719;-62
2021/05/22 05:53:59;;;;;;;;;;;18.00;41.20;;;;;;5030318;28;75461;-61
2021/05/22 05:56:25;;;;;;;;;;;18.10;41.10;;;;;;5032106;28;75034;-62
2021/05/22 05:58:51;;;;;;;;;;;18.20;41.10;;;;;;5032460;28;74551;-64
2021/05/22 06:01:16;;;;;;;;;;;18.30;40.70;;;;;;5031422;28;77231;-62
2021/05/22 06:03:45;;;;;;;;;;;18.40;40.50;;;;;;5035598;28;75116;-65
2021/05/22 06:06:10;;;;;;;;;;;18.30;40.20;;;;;;5033718;28;77429;-65
2021/05/22 06:08:36;;;;;;;;;;;18.30;40.20;;;;;;5035498;28;75322;-63
2021/05/22 06:11:03;;;;;;;;;;;18.30;40.30;;;;;;5033468;28;77118;-65
2021/05/22 06:13:31;;;;;;;;;;;18.30;40.40;;;;;;5035794;28;74488;-64
2021/05/22 06:16:42;;;;;;;;;;;18.30;40.20;;;;;;5035619;28;75726;-65
2021/05/22 06:18:43;;;;;;;;;;;18.20;40.20;;;;;;5027451;28;75639;-65
2021/05/22 06:21:09;;;;;;;;;;;18.10;40.10;;;;;;5033825;28;77260;-64
2021/05/22 06:23:35;;;;;;;;;;;18.20;40.00;;;;;;5033441;28;74665;-65
2021/05/22 06:26:01;;;;;;;;;;;18.20;40.00;;;;;;5033806;28;75337;-65
2021/05/22 06:28:27;;;;;;;;;;;18.20;39.70;;;;;;5035241;28;75143;-63
2021/05/22 06:30:54;;;;;;;;;;;18.20;39.50;;;;;;5035174;28;75504;-63
2021/05/22 06:33:20;;;;;;;;;;;18.20;39.60;;;;;;5033456;28;77178;-66
2021/05/22 06:35:45;;;;;;;;;;;18.10;39.40;;;;;;5033818;28;75316;-65
2021/05/22 06:38:11;;;;;;;;;;;18.20;39.50;;;;;;5033340;28;75653;-64
2021/05/22 06:40:36;;;;;;;;;;;18.20;39.20;;;;;;5033428;28;77235;-66
2021/05/22 06:43:03;;;;;;;;;;;18.20;39.10;;;;;;5035402;28;74424;-64
2021/05/22 06:45:39;;;;;;;;;;;18.20;38.90;;;;;;5016544;28;78202;-62
2021/05/22 06:48:09;;;;;;;;;;;18.20;38.30;;;;;;5034895;28;75246;-61
2021/05/22 06:50:35;;;;;;;;;;;18.30;38.50;;;;;;5033341;28;77301;-61
2021/05/22 06:53:00;;;;;;;;;;;18.40;37.80;;;;;;5033201;28;75738;-64
2021/05/22 06:55:26;;;;;;;;;;;18.40;37.50;;;;;;5033778;28;74524;-62
2021/05/22 06:57:52;;;;;;;;;;;18.40;37.10;;;;;;5034326;28;75399;-63
2021/05/22 07:00:18;;;;;;;;;;;18.50;36.80;;;;;;5033790;28;77963;-61
2021/05/22 07:02:43;;;;;;;;;;;18.50;36.00;;;;;;5035397;28;74865;-61
2021/05/22 07:05:09;;;;;;;;;;;18.50;36.20;;;;;;5033239;28;76582;-61
2021/05/22 07:07:36;;;;;;;;;;;18.60;35.80;;;;;;5034650;28;75048;-62
2021/05/22 07:10:03;;;;;;;;;;;18.60;34.70;;;;;;5034953;28;75201;-62
2021/05/22 07:12:28;;;;;;;;;;;18.60;33.50;;;;;;5031791;28;76912;-62
2021/05/22 07:14:54;;;;;;;;;;;18.70;34.60;;;;;;5032919;28;75253;-61
2021/05/22 07:17:20;;;;;;;;;;;18.70;33.50;;;;;;5033231;28;74584;-63
2021/05/22 07:19:45;;;;;;;;;;;18.80;32.80;;;;;;5032729;28;77139;-61
2021/05/22 07:22:11;;;;;;;;;;;18.60;33.40;;;;;;5034624;28;75105;-64
2021/05/22 07:24:36;;;;;;;;;;;18.60;32.00;;;;;;5034559;28;74468;-61
2021/05/22 07:27:02;;;;;;;;;;;18.60;32.80;;;;;;5033048;28;77882;-62
2021/05/22 07:29:28;;;;;;;;;;;18.70;31.90;;;;;;5032820;28;77409;-62
2021/05/22 07:31:54;;;;;;;;;;;18.60;31.70;;;;;;5034293;28;75110;-64
2021/05/22 07:34:19;;;;;;;;;;;18.50;31.90;;;;;;5034739;28;75146;-63
2021/05/22 07:36:45;;;;;;;;;;;18.70;31.80;;;;;;5032529;28;75335;-64
2021/05/22 07:39:13;;;;;;;;;;;18.70;31.70;;;;;;5036553;27;74736;-66
2021/05/22 07:41:38;;;;;;;;;;;18.70;31.60;;;;;;5044322;28;75283;-71
2021/05/22 07:44:04;;;;;;;;;;;18.80;31.70;;;;;;5033579;28;78302;-73
2021/05/22 07:46:30;;;;;;;;;;;18.90;31.10;;;;;;5034465;28;74482;-71
2021/05/22 07:48:55;;;;;;;;;;;19.00;31.40;;;;;;5037479;27;75721;-69
2021/05/22 07:51:21;;;;;;;;;;;19.10;31.30;;;;;;5050228;28;75437;-69
2021/05/22 07:53:47;;;;;;;;;;;19.10;31.20;;;;;;5052263;28;74931;-69
2021/05/22 07:56:13;;;;;;;;;;;19.00;31.70;;;;;;5052427;28;75393;-69
2021/05/22 07:58:38;;;;;;;;;;;19.10;31.80;;;;;;5052161;28;75405;-69
2021/05/22 08:01:04;;;;;;;;;;;19.20;31.40;;;;;;5052208;28;75355;-69
2021/05/22 08:03:30;;;;;;;;;;;19.30;31.10;;;;;;5052273;28;75104;-69
2021/05/22 08:05:55;;;;;;;;;;;19.30;31.50;;;;;;5053812;28;74917;-69
2021/05/22 08:08:21;;;;;;;;;;;19.40;30.70;;;;;;5053949;28;75615;-67
2021/05/22 08:10:47;;;;;;;;;;;19.50;29.80;;;;;;5051982;27;75727;-69
2021/05/22 08:13:12;;;;;;;;;;;19.50;30.00;;;;;;5087282;27;75833;-69
2021/05/22 08:15:38;;;;;;;;;;;19.60;29.90;;;;;;5052554;28;77928;-70
2021/05/22 08:18:04;;;;;;;;;;;19.70;29.20;;;;;;5053618;28;75147;-70
2021/05/22 08:20:30;;;;;;;;;;;19.60;29.40;;;;;;5052394;28;77032;-70
2021/05/22 08:22:56;;;;;;;;;;;19.70;29.60;;;;;;5052179;28;75491;-70
2021/05/22 08:25:22;;;;;;;;;;;19.90;29.30;;;;;;5052189;27;77407;-70
2021/05/22 08:27:49;;;;;;;;;;;20.00;28.20;;;;;;5053253;27;74562;-69
2021/05/22 08:30:15;;;;;;;;;;;20.00;27.30;;;;;;5053692;28;74823;-69
2021/05/22 08:32:41;;;;;;;;;;;20.10;28.40;;;;;;5052180;28;76267;-69
2021/05/22 08:35:07;;;;;;;;;;;20.20;28.00;;;;;;5086209;27;76082;-69
2021/05/22 08:37:33;;;;;;;;;;;20.30;27.40;;;;;;5052338;28;77287;-69
2021/05/22 08:39:58;;;;;;;;;;;20.40;27.30;;;;;;5052181;28;74592;-69
2021/05/22 08:42:25;;;;;;;;;;;20.60;27.30;;;;;;5052262;28;75212;-69
2021/05/22 08:44:51;;;;;;;;;;;20.70;27.30;;;;;;5053671;28;75556;-69
2021/05/22 08:47:17;;;;;;;;;;;20.90;27.00;;;;;;5051748;28;77085;-69
2021/05/22 08:49:43;;;;;;;;;;;21.10;27.40;;;;;;5053320;28;75859;-69
2021/05/22 08:52:10;;;;;;;;;;;21.30;27.00;;;;;;5053442;28;75135;-69
2021/05/22 08:54:35;;;;;;;;;;;21.50;27.30;;;;;;5051654;28;77169;-69
2021/05/22 08:57:01;;;;;;;;;;;21.70;26.30;;;;;;5053169;28;75219;-69
2021/05/22 08:59:27;;;;;;;;;;;21.70;27.10;;;;;;5052013;28;78042;-70
2021/05/22 09:01:52;;;;;;;;;;;21.80;26.10;;;;;;5052173;28;75693;-70
2021/05/22 09:04:18;;;;;;;;;;;21.70;26.60;;;;;;5051624;28;76433;-70
2021/05/22 09:07:00;;;;;;;;;;;21.60;24.90;;;;;;5053249;28;75345;-70
2021/05/22 09:09:52;;;;;;;;;;;21.50;25.80;;;;;;5052898;28;75679;-70
2021/05/22 09:12:19;;;;;;;;;;;21.70;26.30;;;;;;5049130;27;75426;-70
2021/05/22 09:14:47;;;;;;;;;;;21.90;25.90;;;;;;5052635;28;75190;-70
2021/05/22 09:17:13;;;;;;;;;;;22.00;26.20;;;;;;5052851;28;75358;-70
2021/05/22 09:19:39;;;;;;;;;;;22.00;26.10;;;;;;5053473;28;74443;-70
2021/05/22 09:22:31;;;;;;;;;;;21.80;25.60;;;;;;5053275;28;74494;-70
2021/05/22 09:25:01;;;;;;;;;;;21.60;26.40;;;;;;5048854;28;75725;-70
2021/05/22 09:27:34;;;;;;;;;;;21.70;26.40;;;;;;5052368;28;75246;-70
2021/05/22 09:30:08;;;;;;;;;;;21.60;26.00;;;;;;5050560;27;75613;-70
2021/05/22 09:32:33;;;;;;;;;;;21.80;26.30;;;;;;5041354;28;75034;-70
2021/05/22 09:34:59;;;;;;;;;;;21.90;25.20;;;;;;5032264;28;74467;-72
2021/05/22 09:37:25;;;;;;;;;;;21.90;24.80;;;;;;5029946;28;77177;-70
2021/05/22 09:39:52;;;;;;;;;;;22.00;25.40;;;;;;5032127;28;75636;-73
2021/05/22 09:42:29;;;;;;;;;;;22.10;25.20;;;;;;5030802;28;77326;-71
2021/05/22 09:44:55;;;;;;;;;;;22.10;25.50;;;;;;5032047;28;75295;-70
2021/05/22 09:47:20;;;;;;;;;;;22.10;25.80;;;;;;5030483;28;78030;-70
2021/05/22 09:49:48;;;;;;;;;;;22.00;25.90;;;;;;5032123;28;75392;-71
2021/05/22 09:52:16;;;;;;;;;;;22.00;26.10;;;;;;5031103;28;76691;-70
2021/05/22 09:54:41;;;;;;;;;;;22.20;25.80;;;;;;5031737;28;75715;-70
2021/05/22 09:57:08;;;;;;;;;;;22.20;24.40;;;;;;5032262;28;75140;-69
2021/05/22 09:59:33;;;;;;;;;;;22.10;24.60;;;;;;5030797;28;76251;-70
2021/05/22 10:01:59;;;;;;;;;;;22.00;24.80;;;;;;5030755;28;77622;-72
2021/05/22 10:04:25;;;;;;;;;;;22.00;24.60;;;;;;5036266;27;76459;-70
2021/05/22 10:06:51;;;;;;;;;;;22.10;24.30;;;;;;5046525;27;77187;-69
2021/05/22 10:09:18;;;;;;;;;;;22.10;25.10;;;;;;5047116;27;74593;-72
2021/05/22 10:12:03;;;;;;;;;;;22.30;25.20;;;;;;5040793;28;77649;-71
2021/05/22 10:14:32;;;;;;;;;;;22.50;25.30;;;;;;5029993;28;75705;-70
2021/05/22 10:16:58;;;;;;;;;;;22.80;24.80;;;;;;5030367;28;75931;-71
2021/05/22 10:19:26;;;;;;;;;;;22.90;25.00;;;;;;5030153;28;75285;-70
2021/05/22 10:21:52;;;;;;;;;;;23.30;24.20;;;;;;5031259;28;75491;-71
2021/05/22 10:24:18;;;;;;;;;;;23.50;24.20;;;;;;5030856;28;74785;-70
2021/05/22 10:26:44;;;;;;;;;;;23.80;24.80;;;;;;5030703;28;75044;-73
2021/05/22 10:29:10;;;;;;;;;;;23.90;24.90;;;;;;5031753;28;75279;-70
2021/05/22 10:31:42;;;;;;;;;;;24.10;25.20;;;;;;5030947;28;77902;-70
2021/05/22 10:34:11;;;;;;;;;;;24.40;24.80;;;;;;5031985;28;74974;-70
2021/05/22 10:36:57;;;;;;;;;;;24.50;24.40;;;;;;5030058;28;75597;-70
2021/05/22 10:39:33;;;;;;;;;;;24.80;24.50;;;;;;5042767;28;75909;-70
2021/05/22 10:42:00;;;;;;;;;;;25.00;24.40;;;;;;5030480;28;75514;-72
2021/05/22 10:44:26;;;;;;;;;;;25.20;24.90;;;;;;5029982;28;75232;-70
2021/05/22 10:47:09;;;;;;;;;;;25.40;24.60;;;;;;5031376;28;75719;-71
2021/05/22 10:49:49;;;;;;;;;;;25.40;24.50;;;;;;5030687;28;75003;-70
2021/05/22 10:52:28;;;;;;;;;;;25.50;24.50;;;;;;5032840;28;75480;-71
2021/05/22 10:55:01;;;;;;;;;;;25.70;24.10;;;;;;5034044;28;74918;-70
2021/05/22 10:57:27;;;;;;;;;;;26.10;24.00;;;;;;5034380;28;75360;-70
2021/05/22 11:00:17;;;;;;;;;;;26.60;22.40;;;;;;5032654;28;76301;-70
2021/05/22 11:02:45;;;;;;;;;;;26.70;22.00;;;;;;5028891;28;78514;-71
2021/05/22 11:05:31;;;;;;;;;;;27.20;22.50;;;;;;5031071;28;76791;-70
2021/05/22 11:08:03;;;;;;;;;;;27.90;21.60;;;;;;5032175;28;76579;-70
2021/05/22 11:10:35;;;;;;;;;;;28.60;21.50;;;;;;5031290;28;76802;-70
2021/05/22 11:13:00;;;;;;;;;;;29.30;20.70;;;;;;5033814;28;75354;-70
2021/05/22 11:15:38;;;;;;;;;;;29.50;18.60;;;;;;5032954;28;77073;-71
2021/05/22 11:18:05;;;;;;;;;;;29.40;16.70;;;;;;5034879;28;75853;-71
2021/05/22 11:20:32;;;;;;;;;;;29.00;18.00;;;;;;5035727;28;74509;-70
2021/05/22 11:23:00;;;;;;;;;;;29.30;18.40;;;;;;5032746;28;77323;-70
2021/05/22 11:25:28;;;;;;;;;;;30.10;17.50;;;;;;5032714;28;75102;-70
2021/05/22 11:28:01;;;;;;;;;;;30.70;17.40;;;;;;5033185;28;75394;-71
2021/05/22 11:30:29;;;;;;;;;;;31.40;16.50;;;;;;5034994;28;74451;-69
2021/05/22 11:33:00;;;;;;;;;;;31.40;16.40;;;;;;5034644;28;75276;-70
2021/05/22 11:35:26;;;;;;;;;;;31.40;15.70;;;;;;5032911;28;76189;-71
2021/05/22 11:37:52;;;;;;;;;;;31.80;15.30;;;;;;5033031;28;75880;-71
2021/05/22 11:40:37;;;;;;;;;;;31.70;15.00;;;;;;5033535;28;77365;-72
2021/05/22 11:43:14;;;;;;;;;;;32.50;15.70;;;;;;5035106;28;75247;-72
2021/05/22 11:45:46;;;;;;;;;;;32.60;15.50;;;;;;5032693;28;75386;-72
2021/05/22 11:48:31;;;;;;;;;;;33.10;13.20;;;;;;5033749;28;74609;-71
2021/05/22 11:50:57;;;;;;;;;;;34.80;14.40;;;;;;5033219;28;75256;-70
2021/05/22 11:53:24;;;;;;;;;;;35.70;14.00;;;;;;5033353;28;75144;-71
2021/05/22 11:56:08;;;;;;;;;;;36.40;14.40;;;;;;5031421;28;75120;-71
2021/05/22 11:58:35;;;;;;;;;;;36.90;13.80;;;;;;5030912;28;75382;-70
2021/05/22 12:01:12;;;;;;;;;;;36.00;12.80;;;;;;5031987;28;77484;-70
2021/05/22 12:03:38;;;;;;;;;;;35.00;14.60;;;;;;5032333;28;74516;-71
2021/05/22 12:06:04;;;;;;;;;;;34.10;14.20;;;;;;5033769;28;75130;-71
2021/05/22 12:08:31;;;;;;;;;;;33.60;14.00;;;;;;5033482;28;74581;-72
2021/05/22 12:10:57;;;;;;;;;;;33.00;14.60;;;;;;5031926;28;77711;-70
2021/05/22 12:13:24;;;;;;;;;;;32.60;14.90;;;;;;5034377;28;74782;-71
2021/05/22 12:15:50;;;;;;;;;;;32.30;16.50;;;;;;5032090;28;75842;-71
2021/05/22 12:18:16;;;;;;;;;;;32.90;16.30;;;;;;5032054;28;75348;-71
2021/05/22 12:20:52;;;;;;;;;;;33.80;15.00;;;;;;5033776;28;75230;-71
2021/05/22 12:23:28;;;;;;;;;;;34.40;15.00;;;;;;5033542;28;75770;-71
2021/05/22 12:25:54;;;;;;;;;;;34.00;15.20;;;;;;5032050;28;76180;-71
2021/05/22 12:28:21;;;;;;;;;;;34.00;14.30;;;;;;5032201;28;77115;-71
2021/05/22 12:30:46;;;;;;;;;;;34.30;14.00;;;;;;5031643;28;75341;-71
2021/05/22 12:33:15;;;;;;;;;;;34.40;14.40;;;;;;5032081;28;78018;-70
2021/05/22 12:35:41;;;;;;;;;;;34.30;14.00;;;;;;5031531;28;77729;-71
2021/05/22 12:38:07;;;;;;;;;;;33.90;14.70;;;;;;5034054;28;74551;-70
2021/05/22 12:40:49;;;;;;;;;;;33.00;14.80;;;;;;5032170;28;75090;-71
2021/05/22 12:43:15;;;;;;;;;;;31.80;15.70;;;;;;5031649;28;77524;-71
2021/05/22 12:45:43;;;;;;;;;;;31.00;16.30;;;;;;5032051;28;77074;-70
2021/05/22 12:48:22;;;;;;;;;;;30.60;16.30;;;;;;5033096;28;75393;-71
2021/05/22 12:50:48;;;;;;;;;;;30.10;15.80;;;;;;5032528;28;77106;-70
2021/05/22 12:53:13;;;;;;;;;;;29.70;16.60;;;;;;5033768;28;74509;-71
2021/05/22 12:55:39;;;;;;;;;;;29.40;14.60;;;;;;5031220;28;74868;-71
2021/05/22 12:58:22;;;;;;;;;;;29.40;15.20;;;;;;5031517;28;77189;-71
2021/05/22 13:00:51;;;;;;;;;;;29.70;16.00;;;;;;5033412;28;74555;-71
2021/05/22 13:03:33;;;;;;;;;;;30.60;14.70;;;;;;5032274;28;76452;-72
2021/05/22 13:05:58;;;;;;;;;;;31.00;15.20;;;;;;5033027;28;75247;-71
2021/05/22 13:08:24;;;;;;;;;;;31.20;15.50;;;;;;5031229;28;77229;-71
2021/05/22 13:10:50;;;;;;;;;;;32.10;15.20;;;;;;5031593;28;75145;-70
2021/05/22 13:13:17;;;;;;;;;;;33.60;13.00;;;;;;5033284;28;75033;-71
2021/05/22 13:15:44;;;;;;;;;;;35.70;12.50;;;;;;5033418;28;75008;-72
2021/05/22 13:18:14;;;;;;;;;;;37.00;11.50;;;;;;5031509;28;75058;-71
2021/05/22 13:20:39;;;;;;;;;;;38.00;12.40;;;;;;5031478;28;76409;-72
2021/05/22 13:23:06;;;;;;;;;;;39.00;10.90;;;;;;5031250;28;74532;-72
2021/05/22 13:25:33;;;;;;;;;;;38.70;11.20;;;;;;5031924;28;77296;-71
2021/05/22 13:28:00;;;;;;;;;;;37.90;12.00;;;;;;5033546;28;75244;-72
2021/05/22 13:30:30;;;;;;;;;;;37.90;11.80;;;;;;5031493;28;75242;-72
2021/05/22 13:32:56;;;;;;;;;;;37.70;12.30;;;;;;5032853;28;74630;-72
2021/05/22 13:35:24;;;;;;;;;;;37.40;12.10;;;;;;5030894;28;77982;-71
2021/05/22 13:37:50;;;;;;;;;;;36.70;11.70;;;;;;5032762;28;74464;-72
2021/05/22 13:40:16;;;;;;;;;;;36.80;12.40;;;;;;5032287;28;74940;-72
2021/05/22 13:42:41;;;;;;;;;;;37.80;11.60;;;;;;5031484;28;78321;-72
2021/05/22 13:45:07;;;;;;;;;;;38.30;12.20;;;;;;5030715;28;75332;-71
2021/05/22 13:47:36;;;;;;;;;;;38.90;11.90;;;;;;5031061;28;75418;-72
2021/05/22 13:50:03;;;;;;;;;;;40.20;11.20;;;;;;5030565;28;78020;-72
2021/05/22 13:52:28;;;;;;;;;;;39.60;10.80;;;;;;5033784;28;74521;-72
2021/05/22 13:54:54;;;;;;;;;;;38.40;12.20;;;;;;5031370;28;75483;-72
2021/05/22 13:57:20;;;;;;;;;;;38.00;12.50;;;;;;5030612;28;75350;-72
2021/05/22 13:59:45;;;;;;;;;;;38.40;12.40;;;;;;5032647;27;75107;-74
2021/05/22 14:02:11;;;;;;;;;;;38.10;12.70;;;;;;5030768;28;74660;-72
2021/05/22 14:04:37;;;;;;;;;;;38.30;12.80;;;;;;5031332;28;74656;-72
2021/05/22 14:07:02;;;;;;;;;;;38.30;12.70;;;;;;5030958;28;76361;-73
2021/05/22 14:09:28;;;;;;;;;;;37.50;12.80;;;;;;5030751;28;76159;-73
2021/05/22 14:11:54;;;;;;;;;;;37.00;13.20;;;;;;5032160;28;75184;-72
2021/05/22 14:14:21;;;;;;;;;;;37.30;13.50;;;;;;5030061;28;75980;-71
2021/05/22 14:16:48;;;;;;;;;;;37.40;13.30;;;;;;5032965;28;77035;-71